Time;durP1;ratioP1;P1;durP2;ratioP2;P2;SDS_P1;SDS_P2;PMS_P1;PMS_P2;Temp;Humidity;BMP_temperature;BMP_pressure;BME280_temperature;BME280_humidity;BME280_pressure;Samples;Min_cycle;Max_cycle;Signal;HPM_P1;HPM_P2
2024/03/08 00:00:33;;;;;;;40.17;19.65;;;1.40;16.80;;;;;;2602646;54;20026;31
2024/03/08 00:03:11;;;;;;;42.97;18.88;;;1.40;17.70;;;;;;2621749;47;20859;31
2024/03/08 00:05:49;;;;;;;42.20;20.17;;;1.40;19.00;;;;;;2603420;54;20880;31
2024/03/08 00:08:25;;;;;;;40.00;19.30;;;1.40;20.30;;;;;;2621645;46;20876;31
2024/03/08 00:11:01;;;;;;;36.90;19.67;;;1.30;21.80;;;;;;2603330;54;20378;31
2024/03/08 00:13:37;;;;;;;40.80;19.95;;;1.30;24.40;;;;;;2603437;54;20743;31
2024/03/08 00:16:12;;;;;;;38.70;18.93;;;1.20;26.70;;;;;;2603302;54;20023;31
2024/03/08 00:18:49;;;;;;;40.40;18.75;;;1.20;28.40;;;;;;2603258;54;20793;31
2024/03/08 00:21:27;;;;;;;36.08;19.70;;;1.20;28.70;;;;;;2603312;54;20038;31
2024/03/08 00:24:02;;;;;;;40.03;20.10;;;1.20;30.00;;;;;;2603288;54;20026;31
2024/03/08 00:26:35;;;;;;;38.50;18.30;;;1.10;31.50;;;;;;2603499;54;22367;31
2024/03/08 00:29:10;;;;;;;41.83;19.73;;;1.10;31.40;;;;;;2603253;54;20031;31
2024/03/08 00:31:46;;;;;;;39.20;19.88;;;1.10;33.30;;;;;;2603196;54;20029;31
2024/03/08 00:34:20;;;;;;;36.90;19.50;;;1.10;35.00;;;;;;2603278;54;20869;31
2024/03/08 00:36:58;;;;;;;42.43;20.27;;;1.00;36.80;;;;;;2603229;54;21120;31
2024/03/08 00:39:32;;;;;;;39.85;20.10;;;1.00;37.70;;;;;;2603588;54;21097;31
2024/03/08 00:42:08;;;;;;;38.95;19.38;;;1.00;39.70;;;;;;2603259;54;20033;31
2024/03/08 00:44:48;;;;;;;37.75;18.92;;;1.00;40.80;;;;;;2603286;54;20050;31
2024/03/08 00:47:22;;;;;;;42.03;20.03;;;0.90;42.10;;;;;;2603300;54;20026;31
2024/03/08 00:49:56;;;;;;;39.17;20.65;;;0.90;42.70;;;;;;2603241;54;21401;31
2024/03/08 00:52:38;;;;;;;38.47;18.97;;;0.90;43.10;;;;;;2621585;46;20034;31
2024/03/08 00:55:13;;;;;;;43.03;20.67;;;0.80;43.00;;;;;;2603128;54;21090;31
2024/03/08 00:57:48;;;;;;;42.90;20.95;;;0.80;43.10;;;;;;2621910;46;20242;31
2024/03/08 01:00:24;;;;;;;42.27;19.70;;;0.80;43.50;;;;;;2603278;54;20031;31
2024/03/08 01:03:03;;;;;;;;;;;0.80;46.40;;;;;;2720385;39;21441;31
2024/03/08 01:05:39;;;;;;;40.13;19.00;;;0.80;47.80;;;;;;2701764;39;21379;31
2024/03/08 01:08:16;;;;;;;45.67;20.50;;;0.70;50.20;;;;;;2603210;54;20761;31
2024/03/08 01:13:22;;;;;;;38.17;19.77;;;0.70;52.60;;;;;;2603292;54;20854;31
2024/03/08 01:15:59;;;;;;;45.95;21.27;;;0.70;53.90;;;;;;2621657;46;20034;31
2024/03/08 01:18:39;;;;;;;40.95;20.25;;;0.60;53.80;;;;;;2602798;54;20117;31
2024/03/08 01:21:15;;;;;;;41.75;21.30;;;0.60;54.30;;;;;;2603116;54;20069;31
2024/03/08 01:23:53;;;;;;;;;;;0.60;56.30;;;;;;2702126;39;21416;31
2024/03/08 01:26:29;;;;;;;39.40;19.90;;;0.60;57.70;;;;;;2621551;46;20041;31
2024/03/08 01:29:04;;;;;;;40.47;21.27;;;0.60;59.70;;;;;;2621412;46;20030;31
2024/03/08 01:31:41;;;;;;;45.88;22.05;;;0.50;60.30;;;;;;2603198;54;20777;31
2024/03/08 01:34:17;;;;;;;42.30;22.30;;;0.50;59.80;;;;;;2701847;39;21491;31
2024/03/08 01:36:52;;;;;;;39.00;19.33;;;0.50;60.70;;;;;;2603302;54;20026;31
2024/03/08 01:39:30;;;;;;;46.67;21.00;;;0.50;60.90;;;;;;2603275;54;21543;31
2024/03/08 01:42:07;;;;;;;46.38;22.58;;;0.40;59.20;;;;;;2621597;46;20052;31
2024/03/08 01:44:43;;;;;;;44.03;21.27;;;0.40;62.70;;;;;;2603220;54;20879;31
2024/03/08 01:47:20;;;;;;;45.30;21.20;;;0.40;63.00;;;;;;2603095;54;21161;31
2024/03/08 01:49:58;;;;;;;44.07;20.83;;;0.40;65.40;;;;;;2621485;46;20104;31
2024/03/08 01:52:34;;;;;;;49.42;21.50;;;0.30;65.50;;;;;;2701680;39;20434;31
2024/03/08 01:55:15;;;;;;;42.95;21.35;;;0.30;67.00;;;;;;2602929;54;20085;31
2024/03/08 01:57:51;;;;;;;46.70;21.15;;;0.30;68.20;;;;;;2621615;46;20031;31
2024/03/08 02:00:26;;;;;;;40.85;19.95;;;0.20;69.80;;;;;;2621308;46;20030;31
2024/03/08 02:03:00;;;;;;;41.10;20.00;;;0.20;69.80;;;;;;2701781;39;21185;31
2024/03/08 02:05:35;;;;;;;46.93;21.50;;;0.20;71.90;;;;;;2602963;54;20250;31
2024/03/08 02:08:14;;;;;;;42.15;19.60;;;0.20;72.10;;;;;;2602945;54;20038;31
2024/03/08 02:10:52;;;;;;;47.87;20.97;;;0.20;72.50;;;;;;2602701;54;20845;31
2024/03/08 02:13:28;;;;;;;39.30;20.42;;;0.20;74.60;;;;;;2602868;54;20301;31
2024/03/08 02:16:04;;;;;;;43.85;20.80;;;0.20;73.20;;;;;;2621252;46;20038;31
2024/03/08 02:18:42;;;;;;;43.67;20.38;;;0.10;75.10;;;;;;2701609;39;21329;31
2024/03/08 02:21:19;;;;;;;44.17;19.90;;;0.10;74.80;;;;;;2701460;39;21354;31
2024/03/08 02:23:54;;;;;;;41.28;19.73;;;0.10;74.30;;;;;;2603008;54;20036;31
2024/03/08 02:26:29;;;;;;;39.58;20.45;;;0.10;74.50;;;;;;2602912;54;20030;31
2024/03/08 02:29:05;;;;;;;38.53;20.00;;;0.10;75.10;;;;;;2602827;54;20849;31
2024/03/08 02:31:39;;;;;;;40.90;20.73;;;0.00;74.00;;;;;;2602813;54;20076;31
2024/03/08 02:34:14;;;;;;;42.30;20.60;;;0.00;73.40;;;;;;2621556;46;21125;31
2024/03/08 02:36:52;;;;;;;43.43;21.13;;;0.00;73.70;;;;;;2602916;54;20026;31
2024/03/08 02:39:27;;;;;;;41.30;20.43;;;0.00;75.20;;;;;;2720012;39;20377;31
2024/03/08 02:42:02;;;;;;;41.35;21.08;;;0.00;74.20;;;;;;2602846;54;20930;31
2024/03/08 02:44:39;;;;;;;43.17;19.40;;;0.00;74.00;;;;;;2603037;54;20038;31
2024/03/08 02:47:14;;;;;;;43.08;20.63;;;-0.10;73.60;;;;;;2603061;54;20038;31
2024/03/08 02:49:50;;;;;;;40.90;19.40;;;-0.10;73.10;;;;;;2621240;46;20037;31
2024/03/08 02:52:27;;;;;;;41.42;19.85;;;-0.10;74.40;;;;;;2602795;54;20030;31
2024/03/08 02:55:06;;;;;;;42.28;19.73;;;-0.10;73.70;;;;;;2602741;54;20037;31
2024/03/08 02:57:47;;;;;;;40.47;20.33;;;-0.10;73.70;;;;;;2602856;54;20081;31
2024/03/08 03:00:24;;;;;;;38.87;20.27;;;-0.10;76.40;;;;;;2602976;54;20023;31
2024/03/08 03:02:59;;;;;;;43.17;20.15;;;-0.20;78.10;;;;;;2602984;54;20748;31
2024/03/08 03:05:34;;;;;;;40.25;20.58;;;-0.20;77.10;;;;;;2603063;54;20037;31
2024/03/08 03:08:13;;;;;;;39.65;18.75;;;-0.20;77.20;;;;;;2602766;54;20108;31
2024/03/08 03:10:47;;;;;;;37.23;18.10;;;-0.20;74.80;;;;;;2602812;54;20037;31
2024/03/08 03:13:23;;;;;;;38.50;19.60;;;-0.20;75.50;;;;;;2602717;54;20072;31
2024/03/08 03:16:00;;;;;;;38.00;19.00;;;-0.20;75.30;;;;;;2602762;54;20854;31
2024/03/08 03:18:35;;;;;;;40.70;19.13;;;-0.30;72.80;;;;;;2602664;54;21238;31
2024/03/08 03:21:12;;;;;;;;;;;-0.30;74.40;;;;;;2602941;54;20111;31
2024/03/08 03:23:51;;;;;;;37.95;17.75;;;-0.30;73.30;;;;;;2602644;54;19941;31
2024/03/08 03:26:28;;;;;;;37.53;18.90;;;-0.30;69.20;;;;;;2602639;54;20872;31
2024/03/08 03:29:05;;;;;;;35.50;18.63;;;-0.30;67.10;;;;;;2621482;46;20309;31
2024/03/08 03:31:41;;;;;;;39.45;18.65;;;-0.30;64.90;;;;;;2621626;46;20870;31
2024/03/08 03:34:15;;;;;;;38.35;19.35;;;-0.30;65.90;;;;;;2602710;54;20022;31
2024/03/08 03:36:51;;;;;;;38.40;18.65;;;-0.40;70.00;;;;;;2602438;54;20749;31
2024/03/08 03:39:31;;;;;;;41.25;18.67;;;-0.40;72.30;;;;;;2602582;54;20094;31
2024/03/08 03:42:07;;;;;;;43.47;20.20;;;-0.40;74.60;;;;;;2602633;54;20027;31
2024/03/08 03:44:43;;;;;;;38.80;18.00;;;-0.40;78.20;;;;;;2602637;54;20030;31
2024/03/08 03:47:18;;;;;;;42.70;19.75;;;-0.50;79.00;;;;;;2602578;54;20085;31
2024/03/08 03:49:54;;;;;;;43.13;19.02;;;-0.40;81.20;;;;;;2602608;54;20030;31
2024/03/08 03:52:28;;;;;;;42.63;19.67;;;-0.50;81.80;;;;;;2602471;54;20846;31
2024/03/08 03:55:11;;;;;;;35.40;19.10;;;-0.50;82.00;;;;;;2701257;39;22351;31
2024/03/08 03:57:45;;;;;;;40.30;19.05;;;-0.50;82.30;;;;;;2621074;47;20038;31
2024/03/08 04:00:21;;;;;;;44.10;20.30;;;-0.60;81.80;;;;;;2602502;54;20026;31
2024/03/08 04:02:58;;;;;;;45.35;22.08;;;-0.60;80.60;;;;;;2602567;54;20031;31
2024/03/08 04:05:33;;;;;;;44.90;21.67;;;-0.60;82.70;;;;;;2621143;47;20034;31
2024/03/08 04:08:09;;;;;;;45.78;19.95;;;-0.60;85.20;;;;;;2602570;54;20905;31
2024/03/08 04:10:46;;;;;;;45.15;20.35;;;-0.70;84.70;;;;;;2602729;54;20034;31
2024/03/08 04:13:20;;;;;;;41.73;21.03;;;-0.60;84.10;;;;;;2602580;54;20034;31
2024/03/08 04:15:55;;;;;;;41.33;22.40;;;-0.70;85.60;;;;;;2602213;54;20915;31
2024/03/08 04:18:30;;;;;;;40.95;20.40;;;-0.70;84.80;;;;;;2602546;54;20027;31
2024/03/08 04:21:06;;;;;;;41.83;21.87;;;-0.70;85.60;;;;;;2602637;54;20745;31
2024/03/08 04:23:41;;;;;;;41.78;21.23;;;-0.70;85.50;;;;;;2602579;54;20832;31
2024/03/08 04:26:19;;;;;;;45.33;21.20;;;-0.70;85.90;;;;;;2620822;47;20887;31
2024/03/08 04:28:54;;;;;;;40.22;19.67;;;-0.80;85.40;;;;;;2620658;47;20961;31
2024/03/08 04:31:30;;;;;;;38.97;19.33;;;-0.80;86.50;;;;;;2602669;54;20026;31
2024/03/08 04:34:05;;;;;;;43.50;19.90;;;-0.80;85.40;;;;;;2602519;54;20903;31
2024/03/08 04:36:40;;;;;;;42.25;21.08;;;-0.80;86.50;;;;;;2602497;54;20026;31
2024/03/08 04:39:15;;;;;;;45.13;21.90;;;-0.80;88.80;;;;;;2602530;54;20033;31
2024/03/08 04:41:54;;;;;;;49.70;22.35;;;-0.80;89.30;;;;;;2602442;54;20037;31
2024/03/08 04:44:29;;;;;;;46.05;21.98;;;-0.90;91.50;;;;;;2620802;47;20030;31
2024/03/08 04:47:05;;;;;;;47.17;22.30;;;-0.90;92.10;;;;;;2602639;54;20049;31
2024/03/08 04:49:40;;;;;;;41.93;20.93;;;-0.90;93.00;;;;;;2603095;54;20962;31
2024/03/08 04:52:15;;;;;;;42.72;22.27;;;-0.90;92.50;;;;;;2603167;54;20030;31
2024/03/08 04:54:50;;;;;;;46.03;21.20;;;-0.90;93.40;;;;;;2603307;54;20911;31
2024/03/08 04:57:28;;;;;;;49.28;22.92;;;-0.90;93.10;;;;;;2701573;39;21362;31
2024/03/08 05:00:04;;;;;;;50.95;23.95;;;-1.00;93.80;;;;;;2603126;54;20038;31
2024/03/08 05:02:41;;;;;;;51.03;23.80;;;-1.00;93.70;;;;;;2603218;54;20030;31
2024/03/08 05:05:16;;;;;;;47.85;23.55;;;-1.00;94.30;;;;;;2621773;46;20037;31
2024/03/08 05:07:51;;;;;;;53.05;24.40;;;-1.00;95.20;;;;;;2603082;54;20078;31
2024/03/08 05:10:29;;;;;;;50.78;22.20;;;-1.00;95.50;;;;;;2603079;54;20924;31
2024/03/08 05:13:01;;;;;;;50.17;23.37;;;-1.00;95.30;;;;;;2602873;54;20052;31
2024/03/08 05:15:39;;;;;;;53.03;25.03;;;-1.00;95.20;;;;;;2621608;46;20961;31
2024/03/08 05:18:14;;;;;;;56.50;24.35;;;-1.10;97.30;;;;;;2773096;31;21390;31
2024/03/08 05:20:50;;;;;;;48.10;23.70;;;-1.10;97.00;;;;;;2603375;54;20027;31
2024/03/08 05:23:24;;;;;;;49.90;23.50;;;-1.10;96.20;;;;;;2603112;54;20541;31
2024/03/08 05:26:00;;;;;;;50.80;23.60;;;-1.10;97.40;;;;;;2621663;46;20030;31
2024/03/08 05:28:36;;;;;;;47.42;23.95;;;-1.10;96.80;;;;;;2603051;54;20030;31
2024/03/08 05:31:17;;;;;;;49.20;23.48;;;-1.20;98.60;;;;;;2603367;54;20027;31
2024/03/08 05:33:54;;;;;;;51.20;23.50;;;-1.20;99.90;;;;;;2603029;54;20186;31
2024/03/08 05:36:30;;;;;;;53.97;26.77;;;-1.20;99.90;;;;;;2603015;54;20142;31
2024/03/08 05:39:07;;;;;;;57.50;24.90;;;-1.20;99.90;;;;;;2602973;54;20550;31
2024/03/08 05:41:43;;;;;;;48.78;23.30;;;-1.20;99.90;;;;;;2603296;54;20033;31
2024/03/08 05:44:22;;;;;;;;;;;-1.20;99.90;;;;;;2603366;54;20886;31
2024/03/08 05:47:01;;;;;;;53.38;23.20;;;-1.20;99.90;;;;;;2621415;46;19938;31
2024/03/08 05:49:39;;;;;;;46.33;23.27;;;-1.10;99.90;;;;;;2602225;54;20093;31
2024/03/08 05:52:15;;;;;;;48.75;23.95;;;-1.10;99.90;;;;;;2602477;54;20038;31
2024/03/08 05:54:51;;;;;;;49.47;23.52;;;-1.00;99.90;;;;;;2602317;54;20942;31
2024/03/08 05:57:26;;;;;;;48.72;22.23;;;-0.90;99.90;;;;;;2602398;54;20837;31
2024/03/08 06:00:01;;;;;;;45.95;23.80;;;-0.90;99.90;;;;;;2602579;54;20037;31
2024/03/08 06:02:53;;;;;;;55.40;23.13;;;-0.80;99.90;;;;;;2720160;39;20386;31
2024/03/08 06:05:29;;;;;;;55.75;24.35;;;-0.60;99.90;;;;;;2603209;54;20587;31
2024/03/08 06:08:07;;;;;;;45.13;23.15;;;-0.30;99.90;;;;;;2603149;54;20865;31
2024/03/08 06:10:43;;;;;;;45.40;22.75;;;0.00;98.10;;;;;;2603210;54;20030;31
2024/03/08 06:13:21;;;;;;;37.75;20.52;;;0.30;94.80;;;;;;2602718;54;20041;31
2024/03/08 06:16:00;;;;;;;44.20;22.98;;;0.60;93.40;;;;;;2602842;54;20038;31
2024/03/08 06:18:39;;;;;;;42.75;20.75;;;0.90;83.40;;;;;;2603154;54;20853;31
2024/03/08 06:21:16;;;;;;;44.78;22.38;;;1.30;75.80;;;;;;2602890;54;20038;31
2024/03/08 06:23:57;;;;;;;41.78;22.13;;;1.60;64.60;;;;;;2621654;46;20913;31
2024/03/08 06:26:37;;;;;;;46.73;22.83;;;1.90;64.30;;;;;;2602696;54;20030;31
2024/03/08 06:29:15;;;;;;;44.95;23.38;;;2.20;49.20;;;;;;2602940;54;20907;31
2024/03/08 06:31:53;;;;;;;46.05;26.90;;;2.50;34.90;;;;;;2701394;39;20399;31
2024/03/08 06:34:29;;;;;;;40.30;21.20;;;2.80;26.60;;;;;;2602990;54;20747;31
2024/03/08 06:37:05;;;;;;;41.30;22.38;;;3.10;8.80;;;;;;2621352;46;21148;31
2024/03/08 06:39:40;;;;;;;42.13;22.10;;;3.20;1.00;;;;;;2602984;54;20033;31
2024/03/08 06:42:13;;;;;;;39.47;23.77;;;3.40;1.00;;;;;;2621287;46;22402;31
2024/03/08 06:44:49;;;;;;;37.20;19.75;;;3.50;1.00;;;;;;2602818;54;20282;31
2024/03/08 06:47:25;;;;;;;36.15;21.40;;;3.70;1.00;;;;;;2701457;39;22401;31
2024/03/08 06:50:00;;;;;;;;;;;3.90;1.00;;;;;;2603176;54;20030;31
2024/03/08 06:52:38;;;;;;;42.67;21.40;;;4.10;1.00;;;;;;2602775;54;20740;31
2024/03/08 06:55:14;;;;;;;41.97;22.45;;;4.20;1.00;;;;;;2602679;54;20060;31
2024/03/08 06:57:49;;;;;;;40.40;20.80;;;4.40;1.00;;;;;;2602870;54;20037;31
2024/03/08 07:00:26;;;;;;;40.95;21.40;;;4.60;1.00;;;;;;2602822;54;20031;31
2024/03/08 07:03:02;;;;;;;41.47;22.67;;;4.70;1.00;;;;;;2602686;54;20026;31
2024/03/08 07:05:37;;;;;;;43.47;21.48;;;4.90;1.00;;;;;;2602701;54;20866;31
2024/03/08 07:08:16;;;;;;;43.97;22.57;;;5.20;1.00;;;;;;2602677;54;20029;31
2024/03/08 07:10:51;;;;;;;43.30;22.48;;;5.30;1.00;;;;;;2602409;54;20026;31
2024/03/08 07:13:28;;;;;;;40.50;22.60;;;5.40;99.90;;;;;;2602621;54;20768;31
2024/03/08 07:16:03;;;;;;;44.28;23.00;;;5.50;99.90;;;;;;2602654;54;20064;31
2024/03/08 07:18:39;;;;;;;40.75;20.67;;;5.80;99.90;;;;;;2602513;54;20091;31
2024/03/08 07:21:14;;;;;;;37.83;20.67;;;5.90;99.90;;;;;;2602739;54;20033;31
2024/03/08 07:26:44;;;;;;;43.80;21.55;;;6.10;99.90;;;;;;2621182;46;20253;31
2024/03/08 07:29:19;;;;;;;38.00;20.60;;;6.20;99.90;;;;;;2602492;54;20118;31
2024/03/08 07:32:11;;;;;;;43.90;24.83;;;6.30;99.90;;;;;;2602563;54;20052;31
2024/03/08 07:34:47;;;;;;;38.05;20.63;;;6.40;57.00;;;;;;2602460;54;20077;31
2024/03/08 07:37:21;;;;;;;44.25;26.15;;;6.50;1.00;;;;;;2602504;54;20030;31
2024/03/08 07:39:59;;;;;;;42.93;23.07;;;6.70;1.00;;;;;;2602494;54;20060;31
2024/03/08 07:42:33;;;;;;;35.05;20.85;;;6.80;99.90;;;;;;2620945;46;21227;31
2024/03/08 07:45:09;;;;;;;40.15;23.48;;;7.00;99.90;;;;;;2602388;54;20030;31
2024/03/08 07:47:47;;;;;;;36.67;21.38;;;7.00;94.90;;;;;;2602493;54;20037;31
2024/03/08 07:50:22;;;;;;;42.78;24.65;;;7.10;5.10;;;;;;2602707;54;20081;31
2024/03/08 07:52:57;;;;;;;39.20;22.43;;;7.00;1.00;;;;;;2620431;46;20023;31
2024/03/08 07:55:35;;;;;;;35.08;22.48;;;7.10;1.00;;;;;;2602631;54;20029;31
2024/03/08 07:58:13;;;;;;;39.50;23.38;;;7.20;99.90;;;;;;2620922;47;20034;31
2024/03/08 08:00:49;;;;;;;37.25;22.83;;;7.30;99.90;;;;;;2602633;54;20057;31
2024/03/08 08:03:25;;;;;;;40.40;22.85;;;7.60;99.90;;;;;;2602664;54;20022;31
2024/03/08 08:06:01;;;;;;;42.45;23.05;;;7.80;99.90;;;;;;2602418;54;20102;31
2024/03/08 08:08:38;;;;;;;;;;;7.90;1.00;;;;;;2602689;54;20026;31
2024/03/08 08:11:17;;;;;;;37.72;21.83;;;8.00;99.90;;;;;;2602246;54;20734;31
2024/03/08 08:13:54;;;;;;;37.40;21.67;;;8.10;99.90;;;;;;2620862;47;20893;31
2024/03/08 08:16:31;;;;;;;39.83;22.40;;;8.20;1.00;;;;;;2602523;54;20848;31
2024/03/08 08:19:07;;;;;;;35.50;23.20;;;8.30;1.00;;;;;;2621056;47;20916;31
2024/03/08 08:24:45;;;;;;;34.03;21.98;;;8.40;99.90;;;;;;2602815;54;20022;31
2024/03/08 08:27:23;;;;;;;40.03;22.15;;;8.30;29.80;;;;;;2603066;54;20084;31
2024/03/08 08:32:47;;;;;;;34.70;20.73;;;8.50;1.00;;;;;;2603060;54;20030;31
2024/03/08 08:35:22;;;;;;;36.35;20.45;;;8.50;1.00;;;;;;2602859;54;20045;31
2024/03/08 08:37:58;;;;;;;66.40;27.63;;;8.60;1.00;;;;;;2603030;54;20037;31
2024/03/08 08:40:36;;;;;;;36.70;21.05;;;8.90;1.00;;;;;;2603157;54;21869;31
2024/03/08 08:43:14;;;;;;;43.78;24.88;;;8.90;1.00;;;;;;2621529;46;20063;31
2024/03/08 08:45:53;;;;;;;35.15;20.30;;;9.00;99.90;;;;;;2602905;54;20030;31
2024/03/08 08:48:29;;;;;;;35.33;21.50;;;9.20;99.90;;;;;;2603059;54;21470;31
2024/03/08 08:51:03;;;;;;;35.65;20.85;;;9.10;99.90;;;;;;2603181;54;20069;31
2024/03/08 08:53:40;;;;;;;33.60;20.65;;;9.00;99.90;;;;;;2603137;54;20031;31
2024/03/08 08:59:26;;;;;;;37.65;20.60;;;9.00;99.90;;;;;;2603260;54;20487;31
2024/03/08 09:02:04;;;;;;;32.78;19.27;;;9.10;99.90;;;;;;2602888;54;20022;31
2024/03/08 09:04:39;;;;;;;34.30;20.25;;;9.00;99.90;;;;;;2602765;54;20963;31
2024/03/08 09:07:19;;;;;;;36.10;20.38;;;9.10;99.90;;;;;;2602991;54;20883;31
2024/03/08 09:09:57;;;;;;;35.10;19.53;;;9.10;17.60;;;;;;2621420;46;21098;31
2024/03/08 09:12:34;;;;;;;32.95;19.48;;;9.20;1.00;;;;;;2603229;54;20027;31
2024/03/08 09:15:11;;;;;;;34.22;18.55;;;9.20;1.00;;;;;;2602691;54;20052;31
2024/03/08 09:17:50;;;;;;;34.45;19.70;;;9.30;1.00;;;;;;2603131;54;20844;31
2024/03/08 09:20:29;;;;;;;30.55;19.38;;;9.30;1.00;;;;;;2621389;46;20058;31
2024/03/08 09:23:03;;;;;;;31.60;18.95;;;9.30;1.00;;;;;;2603042;54;20774;31
2024/03/08 09:25:38;;;;;;;46.17;22.45;;;9.30;1.00;;;;;;2602671;54;20750;31
2024/03/08 09:28:19;;;;;;;37.97;20.50;;;9.30;99.90;;;;;;2602890;54;20810;31
2024/03/08 09:30:54;;;;;;;37.50;19.57;;;9.20;99.90;;;;;;2772839;31;20527;31
2024/03/08 09:33:36;;;;;;;31.80;19.70;;;8.90;99.90;;;;;;2772759;31;20500;31
2024/03/08 09:39:22;;;;;;;34.80;20.00;;;9.00;1.00;;;;;;2602856;54;20026;31
2024/03/08 09:42:01;;;;;;;32.92;19.00;;;9.10;1.00;;;;;;2621424;46;20026;31
2024/03/08 09:44:37;;;;;;;32.13;19.63;;;9.10;99.90;;;;;;2621483;46;20047;31
2024/03/08 09:47:13;;;;;;;31.87;19.00;;;9.20;99.90;;;;;;2602779;54;20905;31
2024/03/08 09:49:53;;;;;;;38.10;20.00;;;9.20;99.90;;;;;;2621258;46;21145;31
2024/03/08 09:52:30;;;;;;;31.08;18.15;;;9.30;99.90;;;;;;2621485;46;20932;31
2024/03/08 09:55:09;;;;;;;35.78;19.23;;;9.30;99.90;;;;;;2621611;46;20901;31
2024/03/08 09:58:15;;;;;;;29.52;18.05;;;9.20;99.90;;;;;;2602754;54;21963;31
2024/03/08 10:00:40;;;;;;;28.50;16.60;;;9.20;99.90;;;;;;2602836;54;20053;31
2024/03/08 10:03:15;;;;;;;32.08;17.23;;;9.20;99.90;;;;;;2602758;54;20970;31
2024/03/08 10:05:56;;;;;;;29.70;15.95;;;9.30;99.90;;;;;;2602810;54;20876;31
2024/03/08 10:20:52;;;;;;;26.20;17.13;;;9.90;99.90;;;;;;2610128;54;20014;31
2024/03/08 10:29:44;;;;;;;28.27;16.98;;;10.40;41.90;;;;;;2610684;54;20026;31
2024/03/08 10:32:20;;;;;;;26.45;15.10;;;10.30;11.40;;;;;;2602820;54;20026;31
2024/03/08 10:38:07;;;;;;;24.80;15.60;;;10.40;1.00;;;;;;2602480;54;20906;31
2024/03/08 10:40:54;;;;;;;28.45;16.08;;;10.40;1.00;;;;;;2602532;54;20061;31
2024/03/08 10:46:28;;;;;;;23.45;15.05;;;10.10;1.00;;;;;;2602439;54;20785;31
2024/03/08 10:58:21;;;;;;;19.25;12.00;;;9.90;99.90;;;;;;2610446;54;20023;31
2024/03/08 11:13:43;;;;;;;22.70;13.15;;;10.00;99.90;;;;;;2602460;54;20022;31
2024/03/08 11:16:38;;;;;;;24.38;14.32;;;9.80;99.90;;;;;;2620879;46;21168;31
2024/03/08 11:22:00;;;;;;;21.33;12.97;;;9.60;99.90;;;;;;2602622;54;20056;31
2024/03/08 11:55:00;;;;;;;22.20;11.98;;;9.00;99.90;;;;;;2602405;54;20018;31
2024/03/08 11:57:36;;;;;;;23.33;12.75;;;9.00;99.90;;;;;;2602303;54;20030;31
2024/03/08 12:00:26;;;;;;;21.60;11.30;;;8.90;99.90;;;;;;2603255;54;20842;31
2024/03/08 12:22:17;;;;;;;24.35;12.57;;;8.40;99.90;;;;;;2611146;54;20030;31
2024/03/08 12:25:10;;;;;;;23.40;13.15;;;8.50;99.90;;;;;;2621639;46;20031;31
2024/03/08 12:27:47;;;;;;;27.90;15.20;;;8.40;99.90;;;;;;2621871;46;20874;31
2024/03/08 12:30:33;;;;;;;23.05;14.05;;;8.30;99.90;;;;;;2701834;39;21325;31
2024/03/08 12:33:24;;;;;;;29.33;17.80;;;8.20;99.90;;;;;;2602901;54;20027;31
2024/03/08 12:36:02;;;;;;;27.88;16.80;;;8.20;99.90;;;;;;2603030;54;20045;31
2024/03/08 12:38:47;;;;;;;31.83;17.92;;;8.10;1.00;;;;;;2603090;54;20081;31
2024/03/08 12:41:26;;;;;;;22.00;13.55;;;8.10;99.90;;;;;;2621901;46;20109;31
2024/03/08 12:44:15;;;;;;;22.63;14.55;;;8.10;1.00;;;;;;2603171;54;20027;31
2024/03/08 12:46:53;;;;;;;22.95;14.88;;;8.00;99.90;;;;;;2603337;54;20044;31
2024/03/08 12:49:39;;;;;;;25.23;13.77;;;8.00;99.90;;;;;;2603303;54;20076;31
2024/03/08 12:55:06;;;;;;;24.20;15.10;;;8.00;99.90;;;;;;2603270;54;21881;31
2024/03/08 12:57:47;;;;;;;22.52;13.40;;;8.00;99.90;;;;;;2621412;46;20161;31
2024/03/08 13:00:36;;;;;;;23.65;12.80;;;8.00;99.90;;;;;;2773002;31;20503;31
2024/03/08 13:03:13;;;;;;;23.75;15.05;;;8.00;99.90;;;;;;2603007;54;20743;31
2024/03/08 13:06:13;;;;;;;23.98;15.00;;;8.00;99.90;;;;;;2603015;54;20032;31
2024/03/08 13:09:16;;;;;;;25.33;14.48;;;8.00;99.90;;;;;;2621093;46;20057;31
2024/03/08 13:15:17;;;;;;;26.42;14.85;;;7.90;99.90;;;;;;2602327;54;20777;31
2024/03/08 13:18:00;;;;;;;20.13;13.27;;;7.90;99.90;;;;;;2603121;54;20026;31
2024/03/08 13:20:43;;;;;;;23.40;14.00;;;8.00;99.90;;;;;;2602288;54;20776;31
2024/03/08 13:23:23;;;;;;;22.33;12.95;;;8.00;99.90;;;;;;2603436;46;20970;31
2024/03/08 13:26:05;;;;;;;20.20;12.60;;;8.00;99.90;;;;;;2602720;54;20735;31
2024/03/08 13:28:46;;;;;;;26.05;12.40;;;8.00;99.90;;;;;;2602370;54;20109;31
2024/03/08 13:40:18;;;;;;;24.77;12.85;;;8.00;99.90;;;;;;2603026;54;20023;31
2024/03/08 13:43:03;;;;;;;31.33;14.68;;;7.90;99.90;;;;;;2602818;54;20030;31
2024/03/08 13:45:42;;;;;;;20.10;12.25;;;7.90;99.90;;;;;;2700608;39;20387;31
2024/03/08 13:48:22;;;;;;;24.97;13.77;;;7.90;99.90;;;;;;2603164;54;20027;31
2024/03/08 13:50:57;;;;;;;23.73;14.05;;;7.80;99.90;;;;;;2602778;54;20042;31
2024/03/08 13:59:47;;;;;;;25.60;13.70;;;7.90;1.00;;;;;;2602067;54;20085;31
2024/03/08 14:05:47;;;;;;;24.60;14.38;;;7.90;1.00;;;;;;2602267;54;20053;31
2024/03/08 14:08:42;;;;;;;23.63;13.57;;;7.80;1.00;;;;;;2621630;46;20034;31
2024/03/08 14:11:40;;;;;;;22.45;12.60;;;7.90;1.00;;;;;;2602952;54;20905;31
2024/03/08 14:14:21;;;;;;;21.88;13.75;;;7.80;1.00;;;;;;2602818;54;20876;31
2024/03/08 14:17:17;;;;;;;21.73;12.97;;;7.90;1.00;;;;;;2602546;54;20117;31
2024/03/08 14:20:10;;;;;;;30.92;16.15;;;7.80;1.00;;;;;;2602922;54;20037;31
2024/03/08 14:23:08;;;;;;;24.35;14.40;;;7.80;1.00;;;;;;2621035;47;20054;31
2024/03/08 14:32:10;;;;;;;24.65;13.95;;;7.70;17.50;;;;;;2602670;54;20895;31
2024/03/08 14:38:17;;;;;;;25.27;14.85;;;7.70;73.10;;;;;;2605512;46;20255;31
2024/03/08 14:41:07;;;;;;;26.52;14.43;;;7.70;99.90;;;;;;2603016;54;20030;31
2024/03/08 14:49:53;;;;;;;22.73;14.02;;;7.60;99.90;;;;;;2602753;54;20962;31
2024/03/08 14:52:34;;;;;;;25.90;14.70;;;7.60;99.90;;;;;;2602463;54;20037;31
2024/03/08 14:58:09;;;;;;;26.33;15.02;;;7.70;99.90;;;;;;2602152;54;20038;31
2024/03/08 15:01:00;;;;;;;30.30;16.90;;;7.70;99.90;;;;;;2602659;54;20920;31
2024/03/08 15:03:42;;;;;;;25.65;15.95;;;7.70;99.90;;;;;;2602643;54;20924;31
2024/03/08 15:06:46;;;;;;;28.67;16.83;;;7.60;99.90;;;;;;2602619;54;20933;31
2024/03/08 15:09:39;;;;;;;28.85;16.35;;;7.60;99.90;;;;;;2602603;54;20089;31
2024/03/08 15:12:16;;;;;;;27.43;15.93;;;7.60;99.90;;;;;;2602575;54;20076;31
2024/03/08 15:18:12;;;;;;;32.08;17.40;;;7.60;99.90;;;;;;2610377;54;21021;31
2024/03/08 15:52:30;;;;;;;25.55;15.55;;;7.30;99.90;;;;;;2610636;54;20038;31
2024/03/08 15:55:19;;;;;;;25.42;14.82;;;7.20;1.00;;;;;;2602467;54;20897;31
2024/03/08 15:57:59;;;;;;;26.77;14.68;;;7.20;1.00;;;;;;2606126;46;20026;31
2024/03/08 16:00:48;;;;;;;25.80;15.57;;;7.20;27.70;;;;;;2621154;47;20926;31
2024/03/08 16:03:30;;;;;;;23.70;14.05;;;7.20;92.70;;;;;;2601742;54;20036;31
2024/03/08 16:06:10;;;;;;;29.60;16.07;;;7.10;99.90;;;;;;2621050;47;20033;31
2024/03/08 16:08:55;;;;;;;25.50;14.88;;;7.10;99.90;;;;;;2602450;54;20026;31
2024/03/08 16:11:44;;;;;;;;;;;7.10;99.90;;;;;;2602032;54;20037;31
2024/03/08 16:14:52;;;;;;;25.25;14.98;;;7.10;99.90;;;;;;2601725;54;20789;31
2024/03/08 16:17:43;;;;;;;29.25;15.70;;;7.00;1.00;;;;;;2602293;54;20026;31
2024/03/08 16:26:34;;;;;;;41.15;22.08;;;6.80;99.90;;;;;;2610302;54;20066;31
2024/03/08 16:38:48;;;;;;;31.10;19.20;;;6.60;1.00;;;;;;2610675;54;20022;31
2024/03/08 16:41:39;;;;;;;31.75;19.35;;;6.50;99.90;;;;;;2601738;54;21473;31
2024/03/08 16:47:52;;;;;;;29.48;16.60;;;6.50;99.90;;;;;;2602328;54;20758;31
2024/03/08 17:03:17;;;;;;;31.90;16.65;;;6.20;1.00;;;;;;2607695;46;20057;31
2024/03/08 17:05:57;;;;;;;30.63;16.02;;;6.10;56.70;;;;;;2603169;54;20100;31
2024/03/08 17:08:45;;;;;;;39.15;21.45;;;6.10;43.50;;;;;;2603032;54;20524;31
2024/03/08 17:11:24;;;;;;;48.30;24.65;;;6.00;35.70;;;;;;2603281;54;20873;31
2024/03/08 17:16:57;;;;;;;35.08;18.92;;;6.00;64.60;;;;;;2603274;54;20026;31
2024/03/08 17:22:09;;;;;;;123.75;68.45;;;5.80;99.90;;;;;;2621771;46;20913;31
2024/03/08 17:24:46;;;;;;;53.72;32.90;;;5.80;99.90;;;;;;2701466;39;20372;31
2024/03/08 17:27:27;;;;;;;40.20;23.75;;;5.70;99.90;;;;;;2603038;54;20050;31
2024/03/08 17:30:19;;;;;;;36.75;18.73;;;5.70;99.90;;;;;;2602981;54;20761;31
2024/03/08 17:32:54;;;;;;;38.85;20.30;;;5.60;99.90;;;;;;2603173;54;20034;31
2024/03/08 17:35:38;;;;;;;39.37;19.70;;;5.50;99.90;;;;;;2602981;54;20868;31
2024/03/08 17:38:31;;;;;;;;;;;;;;;;;;;;;
2024/03/08 17:44:01;;;;;;;41.42;20.73;;;5.30;1.00;;;;;;2603036;54;20896;31